Terminal Aerodrome Forecast
Issued by NWS Jackson, MS

Home | Current Version | Previous Version | Text Only | Print | Product List | Glossary On
Versions: 1 2 3 4 5 6 7 8 9 10 11 12 13 14 15 16 17
000
FTUS44 KMEG 271128
TAFTUP
TAF
KTUP 271128Z 2712/2812 36006KT P6SM BKN150
     FM271400 02007KT P6SM FEW040 BKN090
     FM271800 02010KT P6SM VCSH BKN040 OVC090
     FM280100 36005KT P6SM SCT040 BKN150
     FM280600 VRB03KT P6SM SCT250=

USA.gov is the U.S. government's official web portal to all federal, state and local government web resources and services.